Time;durP1;ratioP1;P1;durP2;ratioP2;P2;SDS_P1;SDS_P2;PMS_P1;PMS_P2;Temp;Humidity;BMP_temperature;BMP_pressure;BME280_temperature;BME280_humidity;BME280_pressure;Samples;Min_cycle;Max_cycle;Signal;HPM_P1;HPM_P2
2022/05/17 00:00:31;;;;;;;1999.90;999.90;;;15.10;1.00;;;;;;5112331;28;20048;-82
2022/05/17 00:02:57;;;;;;;1999.90;999.90;;;15.30;1.00;;;;;;5096791;28;20069;-83
2022/05/17 00:05:23;;;;;;;1999.90;999.90;;;15.20;1.00;;;;;;5108025;28;20053;-82
2022/05/17 00:07:49;;;;;;;1999.90;999.90;;;15.20;1.00;;;;;;5111843;28;20128;-81
2022/05/17 00:10:15;;;;;;;1999.90;999.90;;;15.30;1.00;;;;;;5111454;28;20063;-82
2022/05/17 00:12:40;;;;;;;1999.90;999.90;;;15.20;1.00;;;;;;5117339;28;20080;-84
2022/05/17 00:15:07;;;;;;;1999.90;999.90;;;15.30;1.00;;;;;;5111717;28;20059;-82
2022/05/17 00:17:32;;;;;;;1999.90;999.90;;;15.20;1.00;;;;;;5093867;28;20046;-83
2022/05/17 00:19:58;;;;;;;1999.90;999.90;;;15.10;1.00;;;;;;5095291;28;20047;-82
2022/05/17 00:22:24;;;;;;;1999.90;955.70;;;15.10;1.00;;;;;;5112984;28;20105;-82
2022/05/17 00:24:50;;;;;;;1956.90;975.50;;;15.10;1.00;;;;;;5112940;28;20044;-82
2022/05/17 00:27:16;;;;;;;1999.90;999.90;;;;;;;;;;5113043;28;20392;-84
2022/05/17 00:29:42;;;;;;;1893.88;985.95;;;15.00;1.00;;;;;;5112449;28;20164;-83
2022/05/17 00:32:08;;;;;;;1999.90;995.05;;;15.00;1.00;;;;;;5112505;28;20476;-83
2022/05/17 00:34:34;;;;;;;1999.90;999.90;;;14.90;1.00;;;;;;5113688;28;20048;-83
2022/05/17 00:37:00;;;;;;;1999.90;998.28;;;14.90;1.00;;;;;;5113053;28;20078;-82
2022/05/17 00:39:26;;;;;;;1936.88;957.78;;;14.90;1.00;;;;;;5094325;28;20480;-82
2022/05/17 00:41:52;;;;;;;1845.43;898.75;;;14.80;1.00;;;;;;5112280;28;20035;-83
2022/05/17 00:47:20;;;;;;;1999.90;999.90;;;14.80;1.00;;;;;;5112632;28;20138;-82
2022/05/17 00:50:13;;;;;;;1999.90;938.95;;;14.80;1.00;;;;;;5111942;28;20055;-81
2022/05/17 00:52:56;;;;;;;1999.90;999.90;;;14.80;1.00;;;;;;5112116;28;20050;-83
2022/05/17 00:55:25;;;;;;;1999.90;999.90;;;14.80;1.00;;;;;;5113074;28;20064;-82
2022/05/17 00:58:20;;;;;;;1999.90;999.47;;;14.70;1.00;;;;;;5093350;28;20071;-82
2022/05/17 01:01:06;;;;;;;1999.90;999.90;;;14.70;1.00;;;;;;5077412;28;20190;-84
2022/05/17 01:04:03;;;;;;;1999.90;999.40;;;14.60;1.00;;;;;;5093258;28;20134;-83
2022/05/17 01:06:33;;;;;;;1999.90;999.90;;;14.60;1.00;;;;;;5094768;28;20131;-83
2022/05/17 01:08:59;;;;;;;1999.90;999.90;;;14.60;1.00;;;;;;5109814;28;20048;-81
2022/05/17 01:11:25;;;;;;;1999.90;999.90;;;14.60;1.00;;;;;;5093266;28;20050;-82
2022/05/17 01:16:35;;;;;;;1999.90;999.90;;;14.50;1.00;;;;;;5112104;28;20051;-82
2022/05/17 01:19:02;;;;;;;1999.90;999.90;;;14.50;1.00;;;;;;5110778;28;20043;-82
2022/05/17 01:21:28;;;;;;;1999.90;999.90;;;14.60;1.00;;;;;;5112450;28;20056;-83
2022/05/17 01:23:54;;;;;;;1999.90;999.90;;;14.40;1.00;;;;;;5076598;28;20146;-84
2022/05/17 01:26:23;;;;;;;1999.90;987.38;;;14.40;1.00;;;;;;5094548;28;20066;-82
2022/05/17 01:28:49;;;;;;;1999.90;999.90;;;14.40;1.00;;;;;;5076929;28;20051;-82
2022/05/17 01:31:16;;;;;;;1999.90;999.90;;;14.40;1.00;;;;;;5111878;28;20054;-82
2022/05/17 01:33:42;;;;;;;1999.90;999.90;;;14.40;1.00;;;;;;5111511;28;20440;-82
2022/05/17 01:36:12;;;;;;;1999.90;999.90;;;14.40;1.00;;;;;;5112166;28;20048;-81
2022/05/17 01:38:39;;;;;;;1999.90;999.90;;;14.40;1.00;;;;;;5093875;28;20035;-82
2022/05/17 01:41:05;;;;;;;1999.90;999.90;;;14.40;1.00;;;;;;5111242;28;20047;-82
2022/05/17 01:43:32;;;;;;;1999.90;999.90;;;14.30;1.00;;;;;;5111517;28;20146;-82
2022/05/17 01:46:03;;;;;;;1999.90;999.90;;;14.30;1.00;;;;;;5091530;28;20043;-82
2022/05/17 01:48:28;;;;;;;1999.90;999.90;;;14.30;1.00;;;;;;5111669;28;20519;-84
2022/05/17 01:50:54;;;;;;;1999.90;999.90;;;14.30;1.00;;;;;;5092289;28;20079;-82
2022/05/17 01:53:20;;;;;;;1999.90;993.17;;;14.40;1.00;;;;;;5094147;28;20039;-81
2022/05/17 01:55:45;;;;;;;1999.90;999.90;;;14.40;1.00;;;;;;5110209;28;20063;-82
2022/05/17 01:58:11;;;;;;;1999.90;999.90;;;14.40;1.00;;;;;;5110597;28;20074;-83
2022/05/17 02:00:37;;;;;;;1999.90;999.90;;;14.40;1.00;;;;;;5109936;28;20089;-82
2022/05/17 02:03:02;;;;;;;1515.55;883.85;;;14.30;1.00;;;;;;5110529;28;20164;-82
2022/05/17 02:05:28;;;;;;;1956.03;993.53;;;14.30;2.60;;;;;;5093332;28;20097;-82
2022/05/17 02:07:54;;;;;;;1999.90;982.55;;;14.30;2.50;;;;;;5110195;28;20058;-83
2022/05/17 02:10:25;;;;;;;1999.90;999.90;;;14.40;2.60;;;;;;5110722;28;20122;-85
2022/05/17 02:12:55;;;;;;;1963.32;874.08;;;14.30;2.90;;;;;;5110431;28;20185;-82
2022/05/17 02:15:22;;;;;;;1802.35;901.90;;;14.30;1.10;;;;;;5110978;28;20046;-83
2022/05/17 02:17:47;;;;;;;1660.90;883.78;;;14.30;2.80;;;;;;5109984;28;20047;-83
2022/05/17 02:20:13;;;;;;;1966.85;997.05;;;14.30;2.70;;;;;;5111715;28;20070;-82
2022/05/17 02:22:39;;;;;;;1977.82;995.83;;;14.20;2.50;;;;;;5110306;28;20036;-82
2022/05/17 02:25:05;;;;;;;1869.97;871.17;;;14.30;4.20;;;;;;5076098;28;20104;-82
2022/05/17 02:27:30;;;;;;;1999.90;999.90;;;14.20;7.50;;;;;;5110995;28;20054;-82
2022/05/17 02:29:56;;;;;;;1999.90;949.03;;;14.10;8.90;;;;;;5110801;28;20040;-82
2022/05/17 02:32:22;;;;;;;1936.07;986.05;;;14.10;11.20;;;;;;5091883;28;20047;-82
2022/05/17 02:34:47;;;;;;;1999.90;999.90;;;14.10;11.00;;;;;;5110878;28;20048;-84
2022/05/17 02:37:15;;;;;;;1999.90;999.90;;;14.10;11.30;;;;;;5109922;28;20053;-83
2022/05/17 02:39:42;;;;;;;1999.90;999.90;;;14.10;10.90;;;;;;5110442;28;20062;-82
2022/05/17 02:42:09;;;;;;;1996.13;939.53;;;14.40;15.20;;;;;;5110579;28;20123;-82
2022/05/17 02:44:35;;;;;;;1960.45;880.20;;;14.00;14.70;;;;;;5092230;28;20044;-82
2022/05/17 02:47:01;;;;;;;1999.90;999.90;;;14.00;15.80;;;;;;5110469;28;20516;-82
2022/05/17 02:49:27;;;;;;;1932.13;944.83;;;13.90;15.30;;;;;;5091182;28;20126;-81
2022/05/17 02:51:54;;;;;;;1993.68;928.00;;;14.00;25.10;;;;;;5109690;28;20180;-83
2022/05/17 02:54:23;;;;;;;1984.22;992.83;;;14.00;27.20;;;;;;5110016;28;20474;-82
2022/05/17 02:56:49;;;;;;;1832.80;947.05;;;13.90;25.60;;;;;;5110718;28;20464;-85
2022/05/17 02:59:18;;;;;;;1994.38;988.17;;;13.90;27.40;;;;;;5110278;28;20044;-83
2022/05/17 03:01:44;;;;;;;1999.90;999.90;;;13.80;28.10;;;;;;5108573;28;20169;-83
2022/05/17 03:04:12;;;;;;;1748.45;830.42;;;13.80;32.90;;;;;;5109690;28;20048;-83
2022/05/17 03:06:42;;;;;;;1659.88;867.47;;;14.30;41.90;;;;;;5110814;28;20051;-82
2022/05/17 03:09:09;;;;;;;1883.32;922.22;;;13.90;44.00;;;;;;5092872;28;20098;-83
2022/05/17 03:11:42;;;;;;;1307.90;838.42;;;13.90;43.20;;;;;;5109874;28;20047;-83
2022/05/17 03:14:11;;;;;;;1935.57;960.92;;;13.90;42.50;;;;;;5092015;28;20151;-82
2022/05/17 03:16:37;;;;;;;1681.20;860.10;;;13.80;44.50;;;;;;5110749;28;20055;-82
2022/05/17 03:19:04;;;;;;;1973.68;964.78;;;13.80;46.50;;;;;;5110106;28;20050;-84
2022/05/17 03:21:30;;;;;;;1906.15;870.50;;;13.70;48.90;;;;;;5110123;28;20100;-83
2022/05/17 03:23:56;;;;;;;1571.32;893.80;;;13.70;51.50;;;;;;5092057;28;20052;-82
2022/05/17 03:26:21;;;;;;;1717.78;923.38;;;13.80;69.00;;;;;;5096492;28;20047;-83
2022/05/17 03:28:47;;;;;;;1940.70;925.60;;;13.80;68.10;;;;;;5114440;28;20086;-82
2022/05/17 03:31:13;;;;;;;1696.03;906.67;;;13.70;66.80;;;;;;5114217;28;20274;-82
2022/05/17 03:33:39;;;;;;;1458.57;888.00;;;13.70;67.90;;;;;;5113082;28;20149;-83
2022/05/17 03:36:07;;;;;;;1560.30;881.33;;;13.80;72.20;;;;;;5113863;28;20494;-82
2022/05/17 03:38:34;;;;;;;1498.72;894.60;;;13.80;73.10;;;;;;5114402;28;20054;-83
2022/05/17 03:40:59;;;;;;;1822.20;952.97;;;13.80;73.70;;;;;;5095501;28;20055;-83
2022/05/17 03:43:27;;;;;;;1698.88;926.90;;;13.80;73.70;;;;;;5114522;28;20603;-85
2022/05/17 03:45:53;;;;;;;1912.68;970.10;;;13.70;73.70;;;;;;5094686;28;20051;-82
2022/05/17 03:48:19;;;;;;;1977.28;966.80;;;13.70;75.00;;;;;;5113303;28;20149;-81
2022/05/17 03:50:46;;;;;;;1819.38;976.50;;;13.80;76.30;;;;;;5079287;28;20043;-82
2022/05/17 03:53:12;;;;;;;1873.63;983.92;;;13.70;78.80;;;;;;5113734;28;20138;-82
2022/05/17 03:55:38;;;;;;;1755.95;950.58;;;13.80;79.80;;;;;;5113740;28;20054;-83
2022/05/17 03:58:04;;;;;;;1818.00;981.13;;;13.70;77.50;;;;;;5095101;28;20051;-82
2022/05/17 04:00:30;;;;;;;1702.60;985.60;;;13.70;75.80;;;;;;5112856;28;20490;-82
2022/05/17 04:02:55;;;;;;;1981.15;999.90;;;13.60;75.10;;;;;;5114411;28;20104;-84
2022/05/17 04:05:21;;;;;;;1899.63;992.83;;;13.70;76.70;;;;;;5094132;28;20074;-82
2022/05/17 04:07:47;;;;;;;1980.45;997.88;;;13.70;79.20;;;;;;5096049;28;20392;-82
2022/05/17 04:10:14;;;;;;;1986.60;998.25;;;13.60;77.40;;;;;;5078224;28;20090;-82
2022/05/17 04:12:40;;;;;;;1801.07;989.58;;;13.60;76.30;;;;;;5113904;28;20048;-83
2022/05/17 04:15:09;;;;;;;1969.03;999.90;;;13.70;77.50;;;;;;5113760;28;20050;-82
2022/05/17 04:17:35;;;;;;;1899.82;987.30;;;13.70;79.20;;;;;;5113570;28;20113;-83
2022/05/17 04:20:01;;;;;;;1422.43;956.92;;;13.80;80.60;;;;;;5095900;28;20040;-83
2022/05/17 04:22:27;;;;;;;1365.82;905.60;;;13.80;80.10;;;;;;5096944;28;20047;-82
2022/05/17 04:24:54;;;;;;;1573.47;963.33;;;13.90;79.60;;;;;;5097198;28;20040;-82
2022/05/17 04:27:20;;;;;;;1744.82;958.92;;;13.90;76.50;;;;;;5113480;28;20040;-82
2022/05/17 04:29:46;;;;;;;1713.35;929.60;;;13.90;77.20;;;;;;5062031;28;20048;-82
2022/05/17 04:32:11;;;;;;;1556.55;922.45;;;14.00;77.00;;;;;;5078418;28;20047;-82
2022/05/17 04:34:37;;;;;;;1563.35;969.50;;;14.00;77.90;;;;;;5113491;28;20091;-81
2022/05/17 04:37:03;;;;;;;1744.63;955.92;;;14.10;76.50;;;;;;5095256;28;20486;-83
2022/05/17 04:39:30;;;;;;;1605.90;934.97;;;14.10;75.00;;;;;;5075856;28;20051;-83
2022/05/17 04:41:57;;;;;;;1521.50;905.53;;;14.20;73.00;;;;;;5113782;28;20168;-82
2022/05/17 04:44:22;;;;;;;1399.72;896.42;;;14.20;72.60;;;;;;5095065;28;20218;-82
2022/05/17 04:46:48;;;;;;;1745.10;964.95;;;14.30;71.90;;;;;;5113797;28;20484;-82
2022/05/17 04:49:14;;;;;;;1994.43;999.90;;;14.30;65.70;;;;;;5095073;28;20123;-82
2022/05/17 04:51:40;;;;;;;1999.90;999.90;;;14.30;61.10;;;;;;5113510;28;20051;-82
2022/05/17 04:54:05;;;;;;;1999.90;961.38;;;14.30;53.90;;;;;;5094335;28;20058;-82
2022/05/17 04:56:32;;;;;;;1999.90;999.90;;;14.40;45.60;;;;;;5077162;28;20059;-84
2022/05/17 04:58:57;;;;;;;1999.90;999.90;;;14.80;41.40;;;;;;5112163;28;20135;-83
2022/05/17 05:01:23;;;;;;;1999.90;999.90;;;14.30;40.10;;;;;;5111536;28;20467;-82
2022/05/17 05:03:49;;;;;;;1999.90;999.90;;;14.40;33.70;;;;;;5093949;28;20048;-82
2022/05/17 05:06:14;;;;;;;1999.90;999.90;;;14.60;30.60;;;;;;5094644;28;20078;-82
2022/05/17 05:08:40;;;;;;;1999.90;999.90;;;14.40;27.00;;;;;;5077014;28;20044;-83
2022/05/17 05:11:06;;;;;;;1999.90;999.90;;;14.50;28.00;;;;;;5093483;28;20450;-83
2022/05/17 05:13:32;;;;;;;1999.90;999.90;;;14.50;27.10;;;;;;5112383;28;20525;-82
2022/05/17 05:15:57;;;;;;;1999.90;999.90;;;14.90;29.60;;;;;;5093896;28;20067;-83
2022/05/17 05:18:23;;;;;;;1999.90;999.90;;;14.50;29.70;;;;;;5094018;28;20070;-82
2022/05/17 05:20:49;;;;;;;1852.97;998.92;;;14.50;27.40;;;;;;5094131;28;20411;-83
2022/05/17 05:23:15;;;;;;;1999.90;999.90;;;14.80;26.60;;;;;;5074785;28;20043;-82
2022/05/17 05:25:41;;;;;;;1999.90;985.88;;;14.60;25.60;;;;;;5092233;28;20067;-82
2022/05/17 05:28:09;;;;;;;1999.90;999.90;;;14.50;27.70;;;;;;5091784;28;20526;-83
2022/05/17 05:30:35;;;;;;;1999.90;999.90;;;14.70;24.00;;;;;;5092142;28;20547;-82
2022/05/17 05:33:01;;;;;;;1999.90;999.90;;;14.70;22.50;;;;;;5075460;28;20085;-81
2022/05/17 05:35:27;;;;;;;1999.90;999.90;;;14.70;18.40;;;;;;5111819;28;20051;-82
2022/05/17 05:37:54;;;;;;;1999.90;999.90;;;14.90;13.90;;;;;;5112716;28;20055;-81
2022/05/17 05:40:20;;;;;;;1999.90;999.90;;;15.00;11.90;;;;;;5092719;28;20145;-82
2022/05/17 05:42:50;;;;;;;1999.90;999.90;;;15.10;11.00;;;;;;5093624;28;20064;-81
2022/05/17 05:45:16;;;;;;;1999.90;999.90;;;15.20;8.80;;;;;;5111614;28;20044;-83
2022/05/17 05:47:42;;;;;;;1999.90;999.90;;;15.30;1.00;;;;;;5111554;28;20131;-82
2022/05/17 05:50:09;;;;;;;1999.90;999.90;;;15.50;1.00;;;;;;5112967;28;20056;-82
2022/05/17 05:52:35;;;;;;;1999.90;999.90;;;15.50;1.00;;;;;;5112876;28;20399;-83
2022/05/17 05:55:00;;;;;;;1999.90;999.90;;;15.60;1.00;;;;;;5111480;28;20127;-82
2022/05/17 05:57:27;;;;;;;1999.90;999.90;;;15.70;1.00;;;;;;5093966;28;20086;-83
2022/05/17 05:59:53;;;;;;;1999.90;999.90;;;15.80;1.00;;;;;;5112264;28;20100;-82
2022/05/17 06:02:19;;;;;;;1999.90;999.90;;;15.90;1.00;;;;;;5093019;28;20051;-84
2022/05/17 06:04:45;;;;;;;1999.90;999.90;;;15.90;1.00;;;;;;5094047;28;20052;-84
2022/05/17 06:07:10;;;;;;;1999.90;999.90;;;16.00;1.00;;;;;;5093208;28;20054;-85
2022/05/17 06:09:36;;;;;;;1999.90;999.90;;;16.10;1.00;;;;;;5093072;28;20065;-84
2022/05/17 06:12:02;;;;;;;1999.90;999.90;;;16.10;1.00;;;;;;5111868;28;20035;-83
2022/05/17 06:14:29;;;;;;;1999.90;999.90;;;16.10;1.00;;;;;;5093934;28;20503;-83
2022/05/17 06:16:54;;;;;;;1999.90;900.53;;;16.20;1.00;;;;;;5111636;28;20126;-82
2022/05/17 06:19:22;;;;;;;1999.90;999.90;;;16.30;1.00;;;;;;5093634;28;20138;-82
2022/05/17 06:21:48;;;;;;;1999.90;737.20;;;16.30;1.00;;;;;;5112036;28;20231;-82
2022/05/17 06:24:13;;;;;;;1999.90;919.35;;;16.30;1.00;;;;;;5093126;28;20484;-82
2022/05/17 06:26:39;;;;;;;1999.90;635.20;;;16.40;1.00;;;;;;5111688;28;20059;-86
2022/05/17 06:29:06;;;;;;;1999.90;729.17;;;16.50;1.00;;;;;;5111520;28;20385;-82
2022/05/17 06:31:31;;;;;;;1999.90;726.63;;;16.50;1.00;;;;;;5093236;28;20518;-82
2022/05/17 06:33:57;;;;;;;1999.90;900.72;;;16.50;1.00;;;;;;5111838;28;20048;-82
2022/05/17 06:36:23;;;;;;;1999.90;583.88;;;16.60;1.00;;;;;;5111347;28;20116;-81
2022/05/17 06:38:48;;;;;;;1999.90;537.78;;;16.60;1.00;;;;;;5093071;28;20047;-82
2022/05/17 06:41:14;;;;;;;1999.90;583.25;;;16.70;1.00;;;;;;5111563;28;20150;-82
2022/05/17 06:43:40;;;;;;;1899.28;288.38;;;17.50;1.00;;;;;;5111583;28;20048;-81
2022/05/17 06:46:05;;;;;;;1767.03;792.38;;;16.80;1.00;;;;;;5111354;28;20063;-81
2022/05/17 06:48:31;;;;;;;1775.15;226.63;;;17.00;1.00;;;;;;5093245;28;20048;-80
2022/05/17 06:51:02;;;;;;;1999.90;524.55;;;17.10;1.00;;;;;;5111292;28;20040;-81
2022/05/17 06:53:29;;;;;;;1999.90;558.75;;;17.20;1.00;;;;;;5110655;28;20040;-83
2022/05/17 06:55:55;;;;;;;1999.90;999.90;;;17.40;1.00;;;;;;5110960;28;20102;-82
2022/05/17 06:58:20;;;;;;;1738.72;306.02;;;17.60;1.00;;;;;;5092246;28;20087;-83
2022/05/17 07:00:46;;;;;;;1999.90;999.90;;;17.90;1.00;;;;;;5094683;28;20418;-82
2022/05/17 07:03:12;;;;;;;1999.90;999.90;;;18.70;1.00;;;;;;5079996;28;20047;-83
2022/05/17 07:05:37;;;;;;;1999.90;999.90;;;20.10;1.00;;;;;;5114675;28;20285;-81
2022/05/17 07:08:03;;;;;;;1999.90;999.90;;;21.20;1.00;;;;;;5096864;28;20100;-83
2022/05/17 07:13:13;;;;;;;1995.88;999.90;;;23.60;99.90;;;;;;5097478;28;20080;-82
2022/05/17 07:15:45;;;;;;;1614.85;999.90;;;23.90;99.90;;;;;;5096437;28;20047;-82
2022/05/17 07:18:14;;;;;;;1328.93;993.85;;;24.40;99.90;;;;;;5080293;28;20525;-82
2022/05/17 07:20:40;;;;;;;1437.50;998.72;;;25.10;99.90;;;;;;5096644;28;20050;-82
2022/05/17 07:23:06;;;;;;;1019.28;916.05;;;24.90;99.90;;;;;;5114823;28;20051;-82
2022/05/17 07:25:33;;;;;;;1076.88;966.60;;;24.90;99.90;;;;;;5113554;28;20046;-81
2022/05/17 07:28:00;;;;;;;928.63;838.83;;;26.10;99.90;;;;;;5114699;28;20048;-82
2022/05/17 07:30:26;;;;;;;836.03;762.50;;;26.30;99.90;;;;;;5096552;28;20484;-80
2022/05/17 07:32:52;;;;;;;916.90;834.30;;;26.10;99.90;;;;;;5095444;28;20040;-82
2022/05/17 07:35:17;;;;;;;972.03;889.00;;;26.40;99.90;;;;;;5095679;28;20053;-81
2022/05/17 07:37:43;;;;;;;933.53;848.08;;;26.40;99.90;;;;;;5114351;28;20067;-82
2022/05/17 07:40:12;;;;;;;825.17;761.00;;;27.20;99.90;;;;;;5114589;28;20062;-82
2022/05/17 07:42:40;;;;;;;542.97;503.90;;;27.70;99.90;;;;;;5114139;28;20054;-81
2022/05/17 07:45:07;;;;;;;739.45;685.53;;;28.00;99.90;;;;;;5114399;28;20504;-83
2022/05/17 07:47:33;;;;;;;734.25;678.30;;;28.00;99.90;;;;;;5095299;28;20085;-82
2022/05/17 07:49:59;;;;;;;769.67;710.42;;;28.30;99.90;;;;;;5096383;28;20475;-82
2022/05/17 07:52:25;;;;;;;554.75;516.55;;;27.90;99.90;;;;;;5113795;28;20082;-82
2022/05/17 07:54:51;;;;;;;776.83;707.63;;;28.70;99.90;;;;;;5095978;28;20039;-83
2022/05/17 07:57:17;;;;;;;580.70;537.97;;;29.40;99.90;;;;;;5093289;28;20055;-86
2022/05/17 07:59:43;;;;;;;819.03;742.78;;;29.80;99.90;;;;;;5094013;28;20499;-81
2022/05/17 08:02:09;;;;;;;609.22;567.17;;;29.50;99.90;;;;;;5092379;28;20049;-82
2022/05/17 08:04:36;;;;;;;651.35;605.78;;;29.30;99.90;;;;;;5092162;28;20055;-82
2022/05/17 08:07:02;;;;;;;611.90;569.47;;;29.10;99.90;;;;;;5093476;28;20118;-82
2022/05/17 08:09:28;;;;;;;684.88;636.45;;;29.20;99.90;;;;;;5092318;28;20084;-82
2022/05/17 08:11:54;;;;;;;967.47;875.00;;;29.40;99.90;;;;;;5092444;28;20044;-82
2022/05/17 08:14:20;;;;;;;883.33;814.67;;;29.70;99.90;;;;;;5093873;28;20063;-82
2022/05/17 08:16:46;;;;;;;874.37;807.50;;;29.60;99.90;;;;;;5093371;28;20154;-81
2022/05/17 08:19:12;;;;;;;764.85;707.35;;;30.10;99.90;;;;;;5094128;28;20404;-80
2022/05/17 08:21:39;;;;;;;914.20;843.03;;;30.80;99.90;;;;;;5093262;28;20082;-83
2022/05/17 08:24:05;;;;;;;943.63;869.80;;;30.40;99.90;;;;;;5092228;28;20454;-82
2022/05/17 08:29:15;;;;;;;871.67;804.78;;;30.60;99.90;;;;;;5093146;28;20070;-81
2022/05/17 08:31:42;;;;;;;884.13;818.08;;;31.40;99.90;;;;;;5092553;28;20077;-81
2022/05/17 08:34:08;;;;;;;941.00;865.55;;;32.10;99.90;;;;;;5092099;28;20048;-82
2022/05/17 08:36:34;;;;;;;1029.03;936.00;;;32.50;99.90;;;;;;5093512;28;20059;-83
2022/05/17 08:39:01;;;;;;;1025.82;932.25;;;32.60;99.90;;;;;;5093438;28;20082;-83
2022/05/17 08:41:31;;;;;;;1037.40;941.67;;;33.20;99.90;;;;;;5091804;28;20366;-83
2022/05/17 08:44:00;;;;;;;1036.57;941.88;;;33.70;99.90;;;;;;5091866;28;20044;-83
2022/05/17 08:46:57;;;;;;;1056.47;960.17;;;33.90;99.90;;;;;;5093487;28;20086;-86
2022/05/17 08:49:35;;;;;;;1055.32;955.67;;;34.40;99.90;;;;;;5093814;28;20048;-82
2022/05/17 08:52:09;;;;;;;913.13;833.47;;;34.10;99.90;;;;;;5092545;28;20399;-82
2022/05/17 08:54:51;;;;;;;902.05;828.67;;;33.70;99.90;;;;;;5091456;28;20124;-80
2022/05/17 08:57:32;;;;;;;782.78;725.35;;;34.00;99.90;;;;;;5092694;28;20113;-83
2022/05/17 09:00:20;;;;;;;715.10;664.25;;;33.20;99.90;;;;;;5091905;28;20043;-84
2022/05/17 09:03:03;;;;;;;708.03;658.47;;;33.30;99.90;;;;;;5091771;28;20548;-84
2022/05/17 09:05:36;;;;;;;758.78;696.60;;;34.30;99.90;;;;;;5091223;28;20130;-85
2022/05/17 09:08:11;;;;;;;716.13;663.88;;;34.10;99.90;;;;;;5093979;28;20044;-82
2022/05/17 09:10:52;;;;;;;839.58;775.83;;;33.30;99.90;;;;;;5092414;28;20048;-82
2022/05/17 09:13:25;;;;;;;670.65;621.65;;;33.70;99.90;;;;;;5091954;28;20047;-82
2022/05/17 09:15:55;;;;;;;936.70;853.15;;;34.20;99.90;;;;;;5091969;28;20272;-84
2022/05/17 09:18:23;;;;;;;743.20;688.67;;;34.70;99.90;;;;;;5091715;28;20132;-81
2022/05/17 09:20:49;;;;;;;993.70;904.80;;;35.10;99.90;;;;;;5092745;28;20098;-83
2022/05/17 09:23:15;;;;;;;809.60;748.47;;;35.90;99.90;;;;;;5090541;28;20492;-83
2022/05/17 09:26:04;;;;;;;783.72;724.88;;;35.90;99.90;;;;;;5090080;28;20541;-83
2022/05/17 09:29:09;;;;;;;663.25;614.85;;;35.50;99.90;;;;;;5090147;28;20583;-85
2022/05/17 09:31:36;;;;;;;689.83;639.42;;;34.70;99.90;;;;;;5089778;28;20044;-85
2022/05/17 09:34:06;;;;;;;603.28;557.50;;;34.50;99.90;;;;;;5091092;28;20040;-84
2022/05/17 09:36:53;;;;;;;948.10;840.25;;;33.90;99.90;;;;;;5091946;28;20056;-82
2022/05/17 09:39:21;;;;;;;772.00;717.65;;;33.60;99.90;;;;;;5092162;28;20047;-82
2022/05/17 09:41:48;;;;;;;836.67;759.60;;;34.60;99.90;;;;;;5074179;28;20054;-82
2022/05/17 09:44:18;;;;;;;;;;;34.80;99.90;;;;;;5091542;28;20052;-82
2022/05/17 09:46:47;;;;;;;535.42;499.42;;;35.00;99.90;;;;;;5090154;28;19916;-82
2022/05/17 09:52:33;;;;;;;642.45;597.33;;;34.50;99.90;;;;;;5088777;28;20046;-83
2022/05/17 09:55:21;;;;;;;750.22;694.60;;;33.80;99.90;;;;;;5090429;28;20419;-82
2022/05/17 09:58:06;;;;;;;;;;;33.50;99.90;;;;;;5096579;28;20051;-83
2022/05/17 10:00:45;;;;;;;565.70;526.45;;;33.90;99.90;;;;;;5117417;28;19926;-82
2022/05/17 10:03:32;;;;;;;389.33;364.95;;;35.20;99.90;;;;;;5099938;28;20426;-80
2022/05/17 10:06:12;;;;;;;507.50;472.77;;;36.00;99.90;;;;;;5096272;28;20242;-82
2022/05/17 10:09:04;;;;;;;518.28;480.58;;;35.30;99.90;;;;;;5079802;28;20069;-81
2022/05/17 10:11:59;;;;;;;433.27;405.27;;;35.50;99.90;;;;;;5109139;28;20051;-80
2022/05/17 10:14:33;;;;;;;818.38;745.00;;;36.30;99.90;;;;;;5081429;28;20047;-81
2022/05/17 10:17:01;;;;;;;478.30;447.05;;;36.00;99.90;;;;;;5097324;28;20051;-82
2022/05/17 10:19:46;;;;;;;489.65;457.33;;;36.30;99.90;;;;;;5095295;28;20054;-82
2022/05/17 10:22:30;;;;;;;537.38;501.40;;;36.20;99.90;;;;;;5093870;28;20491;-83
2022/05/17 10:25:10;;;;;;;405.27;380.45;;;35.80;99.90;;;;;;5093357;28;20031;-82
2022/05/17 10:27:44;;;;;;;424.40;398.50;;;35.20;99.90;;;;;;5111996;28;20076;-83
2022/05/17 10:30:12;;;;;;;426.60;399.33;;;34.70;99.90;;;;;;5075530;28;20218;-82
2022/05/17 10:32:46;;;;;;;903.17;818.88;;;34.40;99.90;;;;;;5103904;28;20059;-80
2022/05/17 10:35:31;;;;;;;406.98;382.20;;;34.10;99.90;;;;;;5122083;28;20426;-80
2022/05/17 10:38:20;;;;;;;346.55;325.77;;;33.50;99.90;;;;;;5121764;28;20128;-81
2022/05/17 10:40:48;;;;;;;472.48;442.73;;;33.00;99.90;;;;;;5105860;28;20039;-82
2022/05/17 10:43:28;;;;;;;411.15;385.85;;;32.90;99.90;;;;;;5104213;28;20040;-82
2022/05/17 10:46:20;;;;;;;313.45;295.48;;;33.20;99.90;;;;;;5123781;28;20050;-82
2022/05/17 10:49:15;;;;;;;343.30;322.70;;;33.80;99.90;;;;;;5114456;28;20051;-81
2022/05/17 10:52:03;;;;;;;773.65;701.35;;;34.40;99.90;;;;;;5094176;28;20059;-83
2022/05/17 10:54:58;;;;;;;875.50;790.10;;;35.60;99.90;;;;;;5093635;28;20047;-83
2022/05/17 10:57:32;;;;;;;444.63;416.38;;;36.30;99.90;;;;;;5091121;28;20059;-83
2022/05/17 11:00:18;;;;;;;367.77;345.40;;;36.60;99.90;;;;;;5090599;28;20047;-83
2022/05/17 11:03:25;;;;;;;359.38;338.13;;;35.30;99.90;;;;;;5071369;28;20453;-82
2022/05/17 11:06:19;;;;;;;543.83;499.85;;;36.20;99.90;;;;;;5090053;28;20059;-83
2022/05/17 11:09:08;;;;;;;346.65;325.85;;;37.40;99.90;;;;;;5087237;28;20097;-83
2022/05/17 11:11:45;;;;;;;442.73;412.67;;;38.10;99.90;;;;;;5090832;28;20047;-83
2022/05/17 11:14:22;;;;;;;426.45;397.23;;;38.20;99.90;;;;;;5089189;28;20071;-80
2022/05/17 11:17:15;;;;;;;468.27;436.30;;;37.90;99.90;;;;;;5072200;28;20055;-81
2022/05/17 11:20:12;;;;;;;433.15;403.30;;;38.00;99.90;;;;;;5089228;28;20051;-85
2022/05/17 11:22:37;;;;;;;375.15;349.45;;;37.30;99.90;;;;;;5089118;28;20048;-83
2022/05/17 11:25:19;;;;;;;347.77;326.55;;;35.90;99.90;;;;;;5088086;28;20052;-82
2022/05/17 11:28:21;;;;;;;310.42;291.95;;;37.00;99.90;;;;;;5090372;28;20066;-82
2022/05/17 11:31:12;;;;;;;369.25;344.27;;;36.40;99.90;;;;;;5089479;28;20116;-82
2022/05/17 11:33:39;;;;;;;329.85;309.67;;;36.50;99.90;;;;;;5090820;28;20097;-83
2022/05/17 11:36:12;;;;;;;580.08;532.38;;;36.60;99.90;;;;;;5089871;28;20044;-82
2022/05/17 11:38:45;;;;;;;398.08;372.38;;;37.10;99.90;;;;;;5089716;28;20124;-82
2022/05/17 11:41:25;;;;;;;371.90;347.42;;;37.20;99.90;;;;;;5087941;28;20048;-82
2022/05/17 11:44:14;;;;;;;428.27;397.50;;;37.70;99.90;;;;;;5087871;28;20555;-83
2022/05/17 11:47:25;;;;;;;458.23;426.30;;;38.20;99.90;;;;;;5093066;28;20101;-82
2022/05/17 11:49:51;;;;;;;428.48;398.67;;;38.40;99.90;;;;;;5093698;28;20052;-83
2022/05/17 11:52:24;;;;;;;613.77;570.73;;;38.70;99.90;;;;;;5093114;28;20358;-81
2022/05/17 11:54:52;;;;;;;594.80;552.67;;;38.80;99.90;;;;;;5093466;28;20166;-81
2022/05/17 11:57:23;;;;;;;561.10;521.85;;;38.20;99.90;;;;;;5092515;28;20091;-83
2022/05/17 12:00:09;;;;;;;352.52;327.98;;;38.50;99.90;;;;;;5093686;28;20113;-84
2022/05/17 12:02:41;;;;;;;304.30;284.08;;;39.10;99.90;;;;;;5093115;28;20069;-84
2022/05/17 12:05:10;;;;;;;438.00;406.45;;;38.20;99.90;;;;;;5093260;28;20047;-83
2022/05/17 12:07:36;;;;;;;295.35;276.23;;;36.90;99.90;;;;;;5093551;28;20091;-82
2022/05/17 12:10:13;;;;;;;412.73;382.13;;;35.80;99.90;;;;;;5093313;28;20048;-83
2022/05/17 12:12:39;;;;;;;279.70;261.77;;;35.70;99.90;;;;;;5093995;28;20174;-80
2022/05/17 12:15:31;;;;;;;577.57;533.87;;;36.10;99.90;;;;;;5092340;28;20135;-79
2022/05/17 12:18:16;;;;;;;502.42;466.70;;;36.70;99.90;;;;;;5093740;28;20396;-83
2022/05/17 12:21:07;;;;;;;419.90;389.63;;;36.10;99.90;;;;;;5091952;28;20341;-82
2022/05/17 12:23:48;;;;;;;329.35;307.20;;;35.20;99.90;;;;;;5092169;28;20349;-83
2022/05/17 12:26:26;;;;;;;750.05;682.83;;;34.40;99.90;;;;;;5092855;28;20131;-82
2022/05/17 12:28:53;;;;;;;306.80;287.27;;;33.90;99.90;;;;;;5092627;28;20477;-83
2022/05/17 12:31:27;;;;;;;937.53;806.42;;;33.40;99.90;;;;;;5075814;28;20052;-82
2022/05/17 12:33:55;;;;;;;266.83;250.75;;;33.20;99.90;;;;;;5094420;28;20051;-85
2022/05/17 12:36:23;;;;;;;948.00;847.35;;;32.70;99.90;;;;;;5092850;28;20055;-83